Time;durP1;ratioP1;P1;durP2;ratioP2;P2;SDS_P1;SDS_P2;PMS_P1;PMS_P2;Temp;Humidity;BMP_temperature;BMP_pressure;BME280_temperature;BME280_humidity;BME280_pressure;Samples;Min_cycle;Max_cycle;Signal;HPM_P1;HPM_P2
2022/02/15 14:45:04;;;;;;;5.57;1.60;;;9.10;99.00;;;;;;5090030;27;20378;-57
2022/02/15 14:47:32;;;;;;;6.97;1.80;;;9.10;99.20;;;;;;5070843;28;20036;-57
2022/02/15 14:50:00;;;;;;;6.63;1.58;;;9.10;99.20;;;;;;5070399;28;20090;-55
2022/02/15 14:52:27;;;;;;;7.13;1.80;;;9.20;99.20;;;;;;5070227;28;20461;-59
2022/02/15 14:54:55;;;;;;;6.78;1.50;;;9.30;99.00;;;;;;5070856;28;20037;-56
2022/02/15 14:57:22;;;;;;;6.72;1.65;;;9.30;98.80;;;;;;5070002;28;20044;-56
2022/02/15 14:59:49;;;;;;;9.48;1.83;;;9.40;98.90;;;;;;5073867;28;20038;-55
2022/02/15 15:02:16;;;;;;;5.18;1.40;;;9.40;98.50;;;;;;5070932;28;20127;-56
2022/02/15 15:04:43;;;;;;;5.95;1.58;;;9.50;98.60;;;;;;5069853;28;20045;-57
2022/02/15 15:07:10;;;;;;;9.55;2.28;;;9.50;98.50;;;;;;5069438;28;20045;-55
2022/02/15 15:09:37;;;;;;;5.28;1.60;;;9.60;98.20;;;;;;5069634;28;20041;-57
2022/02/15 15:12:03;;;;;;;8.13;1.88;;;9.60;98.50;;;;;;5069715;28;20049;-57
2022/02/15 15:14:31;;;;;;;5.00;1.42;;;9.60;98.20;;;;;;5069832;28;20045;-60
2022/02/15 15:17:02;;;;;;;5.88;1.38;;;9.70;98.30;;;;;;5070389;28;20041;-61
2022/02/15 15:19:28;;;;;;;5.28;1.50;;;9.70;98.30;;;;;;5068466;28;20041;-54
2022/02/15 15:21:56;;;;;;;10.18;2.92;;;9.70;97.90;;;;;;5069472;28;20068;-55
2022/02/15 15:24:25;;;;;;;7.45;1.48;;;9.70;98.50;;;;;;5072138;28;20095;-58
2022/02/15 15:26:52;;;;;;;6.10;1.50;;;9.70;98.20;;;;;;5077197;28;20369;-57
2022/02/15 15:29:18;;;;;;;6.20;1.38;;;9.80;98.10;;;;;;5068830;28;21080;-56
2022/02/15 15:31:48;;;;;;;8.15;1.70;;;9.80;98.30;;;;;;5069510;28;20047;-59
2022/02/15 15:34:15;;;;;;;5.93;2.10;;;9.80;98.10;;;;;;5074679;28;20044;-55
2022/02/15 15:36:42;;;;;;;6.22;1.38;;;9.80;98.00;;;;;;5072394;28;20041;-55
2022/02/15 15:39:09;;;;;;;8.52;1.88;;;9.80;97.90;;;;;;5070367;28;20041;-56
2022/02/15 15:41:37;;;;;;;5.90;1.45;;;9.80;97.70;;;;;;5069165;28;20049;-52
2022/02/15 15:44:04;;;;;;;5.57;1.98;;;9.80;97.70;;;;;;5068832;28;20380;-58
2022/02/15 15:46:31;;;;;;;6.53;1.40;;;9.80;97.80;;;;;;5068613;28;20371;-57
2022/02/15 15:48:58;;;;;;;7.38;1.80;;;9.80;96.90;;;;;;5067336;28;20044;-59
2022/02/15 15:51:25;;;;;;;6.30;1.40;;;9.80;97.10;;;;;;5050651;28;20432;-56
2022/02/15 15:53:52;;;;;;;5.18;1.48;;;9.80;97.00;;;;;;5068675;28;20045;-61
2022/02/15 15:56:19;;;;;;;4.65;1.40;;;9.80;97.20;;;;;;5056008;28;20048;-58
2022/02/15 15:58:47;;;;;;;5.00;1.63;;;9.80;96.80;;;;;;5054445;28;20512;-53
2022/02/15 16:01:14;;;;;;;5.90;1.42;;;9.80;97.10;;;;;;5053649;28;20052;-56
2022/02/15 16:03:40;;;;;;;7.25;1.85;;;9.80;97.00;;;;;;5053616;28;20033;-56
2022/02/15 16:06:07;;;;;;;6.70;1.65;;;9.80;97.20;;;;;;5053286;28;20120;-59
2022/02/15 16:08:34;;;;;;;4.43;1.50;;;9.70;97.10;;;;;;5059203;28;20041;-59
2022/02/15 16:11:01;;;;;;;6.93;1.35;;;9.70;97.10;;;;;;5053597;28;20045;-54
2022/02/15 16:13:29;;;;;;;4.25;1.50;;;9.70;96.90;;;;;;5053736;28;20045;-58
2022/02/15 16:15:56;;;;;;;5.20;1.55;;;9.70;96.90;;;;;;5055303;28;20067;-56
2022/02/15 16:18:23;;;;;;;6.10;1.95;;;9.70;97.10;;;;;;5055159;28;20052;-53
2022/02/15 16:20:50;;;;;;;12.88;5.00;;;9.70;97.30;;;;;;5055041;28;20480;-56
2022/02/15 16:23:19;;;;;;;7.70;2.38;;;9.70;97.40;;;;;;5054977;28;20072;-60
2022/02/15 16:25:46;;;;;;;5.57;2.33;;;9.70;97.50;;;;;;5055233;28;20365;-57
2022/02/15 16:28:16;;;;;;;10.35;3.08;;;9.60;98.00;;;;;;5053857;28;20401;-58
2022/02/15 16:30:43;;;;;;;6.18;2.88;;;9.50;98.60;;;;;;5055134;28;20129;-57
2022/02/15 16:33:09;;;;;;;7.00;2.38;;;9.50;99.00;;;;;;5054782;28;20173;-59
2022/02/15 16:35:37;;;;;;;8.43;2.50;;;9.40;99.10;;;;;;5055230;28;20400;-60
2022/02/15 16:38:03;;;;;;;8.90;3.40;;;9.40;99.20;;;;;;5056554;28;20068;-58
2022/02/15 16:40:30;;;;;;;5.65;2.83;;;9.40;99.50;;;;;;5053539;28;20396;-57
2022/02/15 16:42:57;;;;;;;5.15;1.67;;;9.40;99.50;;;;;;5053153;28;20527;-59
2022/02/15 16:45:28;;;;;;;6.35;1.73;;;9.40;99.30;;;;;;5054551;28;20048;-60
2022/02/15 16:47:54;;;;;;;6.05;1.85;;;9.40;99.50;;;;;;5054549;28;20037;-57
2022/02/15 16:50:21;;;;;;;5.78;1.95;;;9.40;99.40;;;;;;5054476;28;20045;-55
2022/02/15 16:52:48;;;;;;;5.75;1.92;;;9.40;99.30;;;;;;5054100;28;20047;-58
2022/02/15 16:55:15;;;;;;;6.75;1.80;;;9.40;99.30;;;;;;5054498;28;20045;-57
2022/02/15 16:57:42;;;;;;;6.35;2.10;;;9.30;99.30;;;;;;5054446;28;20041;-56
2022/02/15 17:00:09;;;;;;;6.65;1.77;;;9.30;99.40;;;;;;5054512;28;20041;-58
2022/02/15 17:02:36;;;;;;;5.45;1.90;;;9.30;99.40;;;;;;5054427;28;20048;-59
2022/02/15 17:05:02;;;;;;;4.65;2.00;;;9.40;99.50;;;;;;5054218;28;20079;-56
2022/02/15 17:07:29;;;;;;;8.07;1.90;;;9.40;99.50;;;;;;5057559;28;20480;-57
2022/02/15 17:09:56;;;;;;;8.10;2.55;;;9.40;99.50;;;;;;5053041;28;20427;-57
2022/02/15 17:12:23;;;;;;;3.63;2.10;;;9.40;99.80;;;;;;5054313;28;20120;-57
2022/02/15 17:14:50;;;;;;;6.10;2.28;;;9.40;99.60;;;;;;5054220;28;20048;-56
2022/02/15 17:17:21;;;;;;;4.65;1.90;;;9.40;99.50;;;;;;5054080;28;20032;-57
2022/02/15 17:19:48;;;;;;;6.18;2.35;;;9.40;99.50;;;;;;5052808;28;20041;-57
2022/02/15 17:22:15;;;;;;;6.28;2.30;;;9.40;99.40;;;;;;5054286;28;20041;-56
2022/02/15 17:24:42;;;;;;;9.07;3.58;;;9.40;99.50;;;;;;5054070;28;20047;-56
2022/02/15 17:27:08;;;;;;;7.20;2.13;;;9.40;99.50;;;;;;5053911;28;20087;-56
2022/02/15 17:29:36;;;;;;;7.60;2.10;;;9.40;99.60;;;;;;5053904;28;20124;-59
2022/02/15 17:32:04;;;;;;;5.53;1.98;;;9.40;99.50;;;;;;5053852;28;20439;-55
2022/02/15 17:34:39;;;;;;;7.32;2.47;;;9.30;99.30;;;;;;5053976;28;20041;-57
2022/02/15 17:37:06;;;;;;;5.50;2.67;;;9.40;99.40;;;;;;5053979;28;20099;-56
2022/02/15 17:39:33;;;;;;;10.02;4.85;;;9.40;99.50;;;;;;5053833;28;20053;-55
2022/02/15 17:42:00;;;;;;;5.50;2.38;;;9.40;99.50;;;;;;5053718;28;20056;-56
2022/02/15 17:44:27;;;;;;;4.70;1.77;;;9.30;99.40;;;;;;5053278;28;20053;-54
2022/02/15 17:46:55;;;;;;;3.28;1.60;;;9.40;99.40;;;;;;5053634;28;20448;-56
2022/02/15 17:49:24;;;;;;;6.97;1.90;;;9.30;99.40;;;;;;5053741;28;20114;-55
2022/02/15 17:51:53;;;;;;;8.88;2.35;;;9.30;99.30;;;;;;5053710;28;20136;-55
2022/02/15 17:54:20;;;;;;;6.63;2.33;;;9.30;99.10;;;;;;5053427;28;20566;-56
2022/02/15 17:56:48;;;;;;;9.88;2.60;;;9.30;98.90;;;;;;5053333;28;20045;-59
2022/02/15 17:59:15;;;;;;;11.77;2.88;;;9.20;99.00;;;;;;5053443;28;20090;-56
2022/02/15 18:01:50;;;;;;;13.73;3.10;;;9.20;99.10;;;;;;5047313;28;20115;-58
2022/02/15 18:04:17;;;;;;;14.13;2.78;;;9.20;98.90;;;;;;5032696;28;20562;-54
2022/02/15 18:06:44;;;;;;;12.73;4.32;;;9.10;98.70;;;;;;5049532;28;20389;-56
2022/02/15 18:09:14;;;;;;;13.82;3.72;;;9.10;98.70;;;;;;5046970;28;20395;-57
2022/02/15 18:11:40;;;;;;;14.65;3.38;;;9.10;98.50;;;;;;5046836;28;20040;-58
2022/02/15 18:14:07;;;;;;;10.90;3.55;;;9.10;98.60;;;;;;5053583;28;20489;-55
2022/02/15 18:16:34;;;;;;;14.45;3.63;;;9.10;98.20;;;;;;5053387;28;20041;-59
2022/02/15 18:19:15;;;;;;;13.57;3.25;;;9.10;98.50;;;;;;5044878;28;20132;-59
2022/02/15 18:21:42;;;;;;;11.48;2.72;;;9.10;98.50;;;;;;5053282;28;20045;-57
2022/02/15 18:24:11;;;;;;;11.50;2.72;;;9.10;98.50;;;;;;5052886;28;20460;-58
2022/02/15 18:26:37;;;;;;;15.50;2.88;;;9.10;98.40;;;;;;5053301;28;20037;-54
2022/02/15 18:29:19;;;;;;;13.32;2.83;;;9.10;98.30;;;;;;5050775;28;20049;-58
2022/02/15 18:32:04;;;;;;;17.25;3.85;;;9.10;98.10;;;;;;5052850;28;20550;-56
2022/02/15 18:34:31;;;;;;;11.18;3.60;;;9.10;98.20;;;;;;5052883;28;20506;-57
2022/02/15 18:36:59;;;;;;;11.13;2.38;;;9.10;98.20;;;;;;5057596;28;20190;-59
2022/02/15 18:39:28;;;;;;;9.73;3.13;;;9.10;98.30;;;;;;5053226;28;20045;-58
2022/02/15 18:41:54;;;;;;;14.48;3.15;;;9.10;98.30;;;;;;5053126;28;20036;-58
2022/02/15 18:44:21;;;;;;;9.15;2.72;;;9.10;98.30;;;;;;5051641;28;20060;-56
2022/02/15 18:46:48;;;;;;;9.93;3.50;;;9.10;98.30;;;;;;5051676;28;20459;-59
2022/02/15 18:49:15;;;;;;;11.27;3.40;;;9.10;98.40;;;;;;5052069;28;20455;-54
2022/02/15 18:51:42;;;;;;;9.27;3.08;;;9.00;98.50;;;;;;5053168;28;20060;-58
2022/02/15 18:54:09;;;;;;;12.23;3.10;;;9.00;98.60;;;;;;5052918;28;20120;-58
2022/02/15 18:56:36;;;;;;;12.57;4.20;;;9.00;98.60;;;;;;5052944;28;20049;-57
2022/02/15 18:59:02;;;;;;;11.50;3.00;;;9.00;98.70;;;;;;5053282;28;20044;-56
2022/02/15 19:01:29;;;;;;;10.27;3.28;;;9.00;98.70;;;;;;5052950;28;20400;-60
2022/02/15 19:03:56;;;;;;;12.38;3.25;;;9.00;98.70;;;;;;5052556;28;20048;-55
2022/02/15 19:06:23;;;;;;;12.02;3.10;;;8.90;98.70;;;;;;5052638;28;20033;-56
2022/02/15 19:08:50;;;;;;;11.55;3.42;;;9.00;98.70;;;;;;5053325;28;20429;-57
2022/02/15 19:11:17;;;;;;;13.40;4.47;;;9.00;98.80;;;;;;5052715;28;20065;-55
2022/02/15 19:13:44;;;;;;;13.68;5.50;;;9.00;98.70;;;;;;5052579;28;20045;-55
2022/02/15 19:16:12;;;;;;;10.35;3.90;;;9.00;98.70;;;;;;5052471;28;20037;-56
2022/02/15 19:18:41;;;;;;;10.55;2.88;;;9.00;98.70;;;;;;5052313;28;20456;-58
2022/02/15 19:21:08;;;;;;;11.68;2.80;;;9.00;98.70;;;;;;5051382;28;20110;-55
2022/02/15 19:23:35;;;;;;;9.65;2.80;;;9.00;98.50;;;;;;5052558;28;20041;-55
2022/02/15 19:26:02;;;;;;;11.02;2.83;;;9.00;98.60;;;;;;5052730;28;20037;-56
2022/02/15 19:28:29;;;;;;;9.80;3.13;;;9.00;98.50;;;;;;5053255;28;20043;-59
2022/02/15 19:30:55;;;;;;;8.95;3.00;;;9.00;98.60;;;;;;5056305;28;20068;-57
2022/02/15 19:33:23;;;;;;;11.50;2.80;;;8.90;98.70;;;;;;5057291;28;20040;-58
2022/02/15 19:35:50;;;;;;;7.20;2.55;;;8.90;98.60;;;;;;5056383;28;20065;-56
2022/02/15 19:38:17;;;;;;;9.30;3.15;;;9.00;98.80;;;;;;5059630;28;20041;-58
2022/02/15 19:40:44;;;;;;;12.30;2.85;;;8.90;98.80;;;;;;5055288;28;20448;-57
2022/02/15 19:43:17;;;;;;;11.07;3.08;;;8.90;98.80;;;;;;5056383;28;20064;-53
2022/02/15 19:45:44;;;;;;;15.75;5.72;;;9.00;98.80;;;;;;5056125;28;20037;-57
2022/02/15 19:48:13;;;;;;;12.07;4.72;;;9.00;98.90;;;;;;5055922;28;20480;-57
2022/02/15 19:50:40;;;;;;;12.27;4.40;;;9.00;98.90;;;;;;5055854;28;20480;-52
2022/02/15 19:53:07;;;;;;;14.82;4.38;;;9.00;98.90;;;;;;5055839;28;20091;-57
2022/02/15 19:55:33;;;;;;;13.73;4.30;;;9.00;98.90;;;;;;5055861;28;20041;-57
2022/02/15 19:58:00;;;;;;;14.15;4.60;;;9.00;99.00;;;;;;5055655;28;20045;-62
2022/02/15 20:00:27;;;;;;;15.30;5.82;;;9.00;99.00;;;;;;5055642;28;20056;-57
2022/02/15 20:02:54;;;;;;;21.63;7.70;;;9.00;99.00;;;;;;5055720;28;20050;-54
2022/02/15 20:05:21;;;;;;;25.45;9.40;;;9.10;98.90;;;;;;5054421;28;20037;-57
2022/02/15 20:07:47;;;;;;;21.33;6.82;;;9.10;99.00;;;;;;5061348;28;20128;-56
2022/02/15 20:10:14;;;;;;;23.77;8.88;;;9.10;98.80;;;;;;5054257;28;20207;-56
2022/02/15 20:12:46;;;;;;;19.70;5.88;;;9.10;98.90;;;;;;5055666;28;20051;-57
2022/02/15 20:15:14;;;;;;;14.65;4.50;;;9.10;98.90;;;;;;5054386;28;20055;-53
2022/02/15 20:17:41;;;;;;;12.13;4.22;;;9.10;98.80;;;;;;5055368;28;20102;-60
2022/02/15 20:20:08;;;;;;;12.15;3.83;;;9.10;98.90;;;;;;5060319;28;20045;-54
2022/02/15 20:22:46;;;;;;;15.30;5.10;;;9.10;98.90;;;;;;5058781;28;20049;-62
2022/02/15 20:25:14;;;;;;;17.30;4.97;;;9.10;98.90;;;;;;5055752;28;20561;-60
2022/02/15 20:27:41;;;;;;;19.77;4.47;;;9.10;98.90;;;;;;5055290;28;20045;-59
2022/02/15 20:30:08;;;;;;;17.58;4.60;;;9.10;98.90;;;;;;5055446;28;20114;-58
2022/02/15 20:32:37;;;;;;;15.50;5.63;;;9.10;98.90;;;;;;5055309;28;20044;-60
2022/02/15 20:35:04;;;;;;;18.98;4.85;;;9.20;99.30;;;;;;5055034;28;20484;-58
2022/02/15 20:37:31;;;;;;;18.08;6.28;;;9.20;98.90;;;;;;5063455;28;20049;-56
2022/02/15 20:40:05;;;;;;;16.20;5.95;;;9.20;98.90;;;;;;5053887;28;20049;-60
2022/02/15 20:42:32;;;;;;;15.70;5.85;;;9.20;98.90;;;;;;5056230;28;20088;-59
2022/02/15 20:44:59;;;;;;;13.95;5.18;;;9.20;98.90;;;;;;5054391;28;20056;-56
2022/02/15 20:47:26;;;;;;;19.52;4.93;;;9.20;99.20;;;;;;5053235;28;20063;-57
2022/02/15 20:49:58;;;;;;;10.93;4.32;;;9.20;98.90;;;;;;5054734;28;20107;-54
2022/02/15 20:52:25;;;;;;;15.65;4.72;;;9.20;98.90;;;;;;5053337;28;20090;-60
2022/02/15 20:54:52;;;;;;;17.42;5.10;;;9.20;98.90;;;;;;5053252;28;20059;-61
2022/02/15 20:57:18;;;;;;;13.80;4.18;;;9.20;98.90;;;;;;5052457;28;20477;-59
2022/02/15 20:59:46;;;;;;;16.55;4.72;;;9.20;98.90;;;;;;5054651;28;20515;-57
2022/02/15 21:02:13;;;;;;;16.38;4.07;;;9.20;98.80;;;;;;5053290;28;20063;-54
2022/02/15 21:04:40;;;;;;;14.05;4.55;;;9.20;98.90;;;;;;5054184;28;20439;-58
2022/02/15 21:07:06;;;;;;;16.92;4.68;;;9.20;98.90;;;;;;5058349;28;20480;-56
2022/02/15 21:09:33;;;;;;;17.30;4.60;;;9.20;98.80;;;;;;5054333;28;20506;-57
2022/02/15 21:12:05;;;;;;;13.82;4.30;;;9.20;98.90;;;;;;5054336;28;20400;-61
2022/02/15 21:14:31;;;;;;;19.10;4.82;;;9.20;98.90;;;;;;5054280;28;20041;-57
2022/02/15 21:16:58;;;;;;;15.82;4.88;;;9.20;98.90;;;;;;5053738;28;20060;-59
2022/02/15 21:19:25;;;;;;;20.60;4.60;;;9.20;98.90;;;;;;5054183;28;20103;-58
2022/02/15 21:21:54;;;;;;;14.50;4.78;;;9.20;98.90;;;;;;5058342;28;20453;-58
2022/02/15 21:24:20;;;;;;;21.25;5.20;;;9.20;98.70;;;;;;5054080;28;20451;-58
2022/02/15 21:26:47;;;;;;;19.00;5.15;;;9.20;98.70;;;;;;5052538;28;20512;-57
2022/02/15 21:29:14;;;;;;;16.05;5.30;;;9.30;98.80;;;;;;5050388;28;20048;-60
2022/02/15 21:31:41;;;;;;;16.13;4.45;;;9.30;98.60;;;;;;5054015;28;20115;-61
2022/02/15 21:34:09;;;;;;;16.77;4.75;;;9.30;98.70;;;;;;5052629;28;20057;-58
2022/02/15 21:36:40;;;;;;;20.00;5.10;;;9.30;98.60;;;;;;5054972;28;20048;-60
2022/02/15 21:39:10;;;;;;;16.95;5.05;;;9.20;98.60;;;;;;5055703;28;20091;-57
2022/02/15 21:41:37;;;;;;;16.55;5.03;;;9.20;98.60;;;;;;5053601;28;20480;-60
2022/02/15 21:44:03;;;;;;;16.38;5.18;;;9.20;98.50;;;;;;5053390;28;20416;-57
2022/02/15 21:46:30;;;;;;;18.13;4.78;;;9.20;98.40;;;;;;5053253;28;20044;-55
2022/02/15 21:48:57;;;;;;;19.60;5.40;;;9.20;98.50;;;;;;5053548;28;20041;-59
2022/02/15 21:51:28;;;;;;;19.25;5.40;;;9.20;98.50;;;;;;5053897;28;20098;-61
2022/02/15 21:53:54;;;;;;;24.33;6.07;;;9.20;98.50;;;;;;5053479;28;20049;-59
2022/02/15 21:56:21;;;;;;;21.08;5.25;;;9.20;98.60;;;;;;5053511;28;20045;-58
2022/02/15 21:58:48;;;;;;;20.67;4.90;;;9.20;98.60;;;;;;5053386;28;20443;-57
2022/02/15 22:01:21;;;;;;;21.55;5.43;;;9.20;98.50;;;;;;5052945;28;20045;-53
2022/02/15 22:03:48;;;;;;;19.80;4.60;;;9.30;98.50;;;;;;5053310;28;20090;-55
2022/02/15 22:06:18;;;;;;;23.55;5.07;;;9.30;98.50;;;;;;5053369;28;20037;-56
2022/02/15 22:08:45;;;;;;;20.10;4.70;;;9.30;98.50;;;;;;5052762;28;20369;-57
2022/02/15 22:11:12;;;;;;;21.95;4.90;;;9.20;98.40;;;;;;5053461;28;20231;-57
2022/02/15 22:13:39;;;;;;;21.77;6.22;;;9.30;98.40;;;;;;5056561;28;20052;-57
2022/02/15 22:16:20;;;;;;;20.95;5.68;;;9.30;98.40;;;;;;5053186;28;20044;-53
2022/02/15 22:18:47;;;;;;;16.08;4.63;;;9.30;98.40;;;;;;5053251;28;20041;-54
2022/02/15 22:21:15;;;;;;;20.45;5.35;;;9.30;98.40;;;;;;5053285;28;20053;-61
2022/02/15 22:23:41;;;;;;;19.38;5.65;;;9.20;98.40;;;;;;5053429;28;20033;-59
2022/02/15 22:26:09;;;;;;;22.13;5.15;;;9.20;98.40;;;;;;5051721;28;20403;-59
2022/02/15 22:28:36;;;;;;;25.55;6.10;;;9.30;98.50;;;;;;5052950;28;20041;-56
2022/02/15 22:31:03;;;;;;;21.67;4.93;;;9.30;98.50;;;;;;5053065;28;20381;-57
2022/02/15 22:33:31;;;;;;;26.85;6.57;;;9.30;98.50;;;;;;5053430;28;20029;-59
2022/02/15 22:36:00;;;;;;;24.25;5.80;;;9.30;98.60;;;;;;5053023;28;20041;-60
2022/02/15 22:38:27;;;;;;;25.63;5.35;;;9.20;98.50;;;;;;5057582;28;20045;-57
2022/02/15 22:40:54;;;;;;;24.92;5.05;;;9.30;98.60;;;;;;5056731;28;20404;-57
2022/02/15 22:43:21;;;;;;;23.80;5.70;;;9.30;98.60;;;;;;5061239;28;20048;-62
2022/02/15 22:45:48;;;;;;;33.72;6.15;;;9.30;98.60;;;;;;5054366;28;20041;-58
2022/02/15 22:48:15;;;;;;;21.92;5.18;;;9.30;98.60;;;;;;5052780;28;20136;-54
2022/02/15 22:50:42;;;;;;;27.20;5.68;;;9.30;98.60;;;;;;5053124;28;20040;-60
2022/02/15 22:53:09;;;;;;;27.98;5.85;;;9.30;98.60;;;;;;5051844;28;20047;-56
2022/02/15 22:55:36;;;;;;;25.27;5.45;;;9.30;98.50;;;;;;5052717;28;20400;-56
